createdAt,value
2018-12-31T00:03:15.564Z,2.80
2018-12-31T00:08:43.698Z,2.80
2018-12-31T00:11:24.253Z,2.80
2018-12-31T00:14:04.519Z,2.80
2018-12-31T00:19:30.563Z,2.80
2018-12-31T00:22:10.875Z,2.90
2018-12-31T00:24:51.306Z,2.90
2018-12-31T00:27:32.900Z,2.90
2018-12-31T00:30:16.783Z,2.90
2018-12-31T00:32:58.952Z,3.00
2018-12-31T00:38:23.473Z,3.00
2018-12-31T00:41:03.570Z,3.00
2018-12-31T00:43:44.445Z,3.10
2018-12-31T00:46:24.676Z,3.10
2018-12-31T00:49:04.847Z,3.10
2018-12-31T00:51:45.154Z,3.20
2018-12-31T00:54:25.788Z,3.20
2018-12-31T00:57:06.145Z,3.20
2018-12-31T00:59:46.194Z,3.20
2018-12-31T01:02:26.741Z,3.10
2018-12-31T01:05:06.866Z,3.20
2018-12-31T01:07:47.833Z,3.20
2018-12-31T01:10:28.391Z,3.20
2018-12-31T01:13:08.829Z,3.20
2018-12-31T01:15:49.397Z,3.20
2018-12-31T01:18:29.160Z,3.30
2018-12-31T01:21:09.926Z,3.30
2018-12-31T01:23:50.049Z,3.30
2018-12-31T01:26:30.496Z,3.30
2018-12-31T01:29:11.167Z,3.30
2018-12-31T01:31:51.053Z,3.30
2018-12-31T01:34:31.770Z,3.30
2018-12-31T01:37:12.998Z,3.40
2018-12-31T01:39:53.458Z,3.40
2018-12-31T01:42:34.098Z,3.30
2018-12-31T01:45:14.629Z,3.40
2018-12-31T01:47:55.479Z,3.40
2018-12-31T01:56:16.253Z,3.40
2018-12-31T01:58:57.146Z,3.40
2018-12-31T02:01:37.949Z,3.40
2018-12-31T02:04:18.144Z,3.40
2018-12-31T02:06:58.784Z,3.40
2018-12-31T02:09:40.251Z,3.40
2018-12-31T02:12:20.614Z,3.40
2018-12-31T02:15:01.188Z,3.50
2018-12-31T02:17:41.429Z,3.50
2018-12-31T02:20:21.864Z,3.50
2018-12-31T02:23:02.325Z,3.40
2018-12-31T02:25:43.186Z,3.50
2018-12-31T02:28:23.954Z,3.50
2018-12-31T02:31:05.541Z,3.50
2018-12-31T02:33:45.858Z,3.50
2018-12-31T02:36:27.234Z,3.50
2018-12-31T02:39:07.561Z,3.50
2018-12-31T02:41:48.594Z,3.50
2018-12-31T02:47:15.202Z,3.50
2018-12-31T02:52:46.224Z,3.50
2018-12-31T02:58:15.646Z,3.50
2018-12-31T03:03:41.155Z,3.50
2018-12-31T03:09:11.937Z,3.50
2018-12-31T03:11:52.924Z,3.50
2018-12-31T03:14:34.512Z,3.50
2018-12-31T03:19:59.171Z,3.50
2018-12-31T03:25:25.225Z,3.50
2018-12-31T03:28:05.472Z,3.50
2018-12-31T03:30:47.016Z,3.50
2018-12-31T03:33:28.621Z,3.50
2018-12-31T03:38:52.806Z,3.50
2018-12-31T03:44:17.887Z,3.50
2018-12-31T03:49:47.769Z,3.50
2018-12-31T03:52:28.065Z,3.50
2018-12-31T03:55:08.627Z,3.50
2018-12-31T03:57:49.273Z,3.50
2018-12-31T04:00:29.670Z,3.50
2018-12-31T04:03:09.716Z,3.50
2018-12-31T04:05:50.605Z,3.50
2018-12-31T04:08:31.083Z,3.50
2018-12-31T04:11:11.275Z,3.50
2018-12-31T04:13:51.805Z,3.50
2018-12-31T04:16:32.274Z,3.50
2018-12-31T04:19:12.428Z,3.50
2018-12-31T04:21:52.592Z,3.50
2018-12-31T04:24:33.344Z,3.50
2018-12-31T04:27:13.761Z,3.50
2018-12-31T04:29:54.298Z,3.50
2018-12-31T04:32:34.529Z,3.50
2018-12-31T04:35:15.265Z,3.50
2018-12-31T04:37:55.331Z,3.50
2018-12-31T04:40:35.853Z,3.50
2018-12-31T04:43:16.168Z,3.50
2018-12-31T04:48:45.553Z,3.50
2018-12-31T04:54:10.370Z,3.50
2018-12-31T04:56:51.167Z,3.50
2018-12-31T04:59:32.838Z,3.50
2018-12-31T05:02:13.415Z,3.50
2018-12-31T05:04:53.816Z,3.50
2018-12-31T05:07:34.118Z,3.50
2018-12-31T05:10:18.828Z,3.50
2018-12-31T05:12:58.899Z,3.50
2018-12-31T05:15:39.498Z,3.50
2018-12-31T05:18:20.135Z,3.60
2018-12-31T05:21:02.720Z,3.50
2018-12-31T05:26:32.643Z,3.50
2018-12-31T05:32:03.491Z,3.50
2018-12-31T05:34:31.848Z,3.50
2018-12-31T05:36:59.828Z,3.60
2018-12-31T05:39:28.005Z,3.50
2018-12-31T05:41:56.016Z,3.50
2018-12-31T05:44:24.050Z,3.50
2018-12-31T05:46:52.091Z,3.50
2018-12-31T05:49:19.926Z,3.50
2018-12-31T05:51:47.802Z,3.50
2018-12-31T05:54:15.854Z,3.50
2018-12-31T05:56:43.914Z,3.50
2018-12-31T05:59:12.736Z,3.50
2018-12-31T06:01:40.767Z,3.50
2018-12-31T06:04:08.594Z,3.50
2018-12-31T06:06:36.356Z,3.50
2018-12-31T06:09:05.930Z,3.50
2018-12-31T06:11:34.995Z,3.50
2018-12-31T06:14:02.848Z,3.50
2018-12-31T06:16:30.885Z,3.50
2018-12-31T06:18:58.874Z,3.50
2018-12-31T06:21:26.817Z,3.50
2018-12-31T06:23:54.949Z,3.50
2018-12-31T06:26:22.879Z,3.50
2018-12-31T06:28:50.820Z,3.50
2018-12-31T06:31:19.171Z,3.50
2018-12-31T06:33:46.975Z,3.50
2018-12-31T06:36:14.747Z,3.50
2018-12-31T06:38:42.610Z,3.50
2018-12-31T06:41:10.624Z,3.50
2018-12-31T06:43:38.618Z,3.50
2018-12-31T06:46:06.660Z,3.50
2018-12-31T06:48:34.574Z,3.50
2018-12-31T06:51:02.552Z,3.50
2018-12-31T06:53:30.612Z,3.50
2018-12-31T06:55:58.509Z,3.50
2018-12-31T06:58:26.445Z,3.50
2018-12-31T07:00:54.462Z,3.50
2018-12-31T07:03:22.317Z,3.50
2018-12-31T07:05:50.077Z,3.50
2018-12-31T07:08:17.920Z,3.50
2018-12-31T07:10:45.861Z,3.50
2018-12-31T07:13:13.834Z,3.50
2018-12-31T07:15:41.724Z,3.50
2018-12-31T07:18:09.564Z,3.50
2018-12-31T07:20:38.558Z,3.60
2018-12-31T07:23:06.598Z,3.60
2018-12-31T07:25:34.664Z,3.60
2018-12-31T07:28:02.512Z,3.60
2018-12-31T07:30:30.488Z,3.60
2018-12-31T07:32:58.421Z,3.60
2018-12-31T07:35:26.239Z,3.60
2018-12-31T07:37:54.225Z,3.60
2018-12-31T07:40:25.649Z,3.60
2018-12-31T07:42:53.912Z,3.60
2018-12-31T07:45:22.130Z,3.60
2018-12-31T07:47:51.562Z,3.60
2018-12-31T07:50:19.613Z,3.70
2018-12-31T07:52:47.495Z,3.70
2018-12-31T07:55:15.615Z,3.70
2018-12-31T07:57:43.444Z,3.70
2018-12-31T08:00:12.362Z,3.70
2018-12-31T08:02:40.938Z,3.70
2018-12-31T08:05:09.470Z,3.70
2018-12-31T08:07:37.530Z,3.70
2018-12-31T08:10:06.496Z,3.70
2018-12-31T08:12:34.348Z,3.70
2018-12-31T08:15:02.257Z,3.70
2018-12-31T08:17:30.142Z,3.70
2018-12-31T08:19:58.122Z,3.70
2018-12-31T08:22:26.199Z,3.80
2018-12-31T08:24:54.119Z,3.80
2018-12-31T08:27:21.963Z,3.80
2018-12-31T08:29:50.236Z,3.80
2018-12-31T08:32:18.221Z,3.80
2018-12-31T08:34:46.266Z,3.80
2018-12-31T08:37:14.521Z,3.80
2018-12-31T08:39:42.655Z,3.80
2018-12-31T08:42:10.538Z,3.80
2018-12-31T08:44:38.395Z,3.90
2018-12-31T08:47:06.311Z,3.90
2018-12-31T08:49:34.431Z,3.90
2018-12-31T08:52:02.781Z,3.90
2018-12-31T08:54:31.030Z,3.90
2018-12-31T08:56:58.952Z,3.90
2018-12-31T08:59:26.856Z,4.00
2018-12-31T09:01:54.725Z,4.00
2018-12-31T09:04:22.483Z,4.00
2018-12-31T09:06:50.535Z,4.00
2018-12-31T09:09:18.693Z,4.10
2018-12-31T09:11:46.542Z,4.10
2018-12-31T09:14:14.830Z,4.20
2018-12-31T09:16:42.704Z,4.20
2018-12-31T09:19:10.719Z,4.20
2018-12-31T09:21:38.718Z,4.20
2018-12-31T09:24:06.845Z,4.20
2018-12-31T09:26:34.845Z,4.30
2018-12-31T09:29:02.860Z,4.30
2018-12-31T09:31:31.454Z,4.40
2018-12-31T09:34:00.807Z,4.40
2018-12-31T09:36:28.750Z,4.40
2018-12-31T09:38:56.615Z,4.40
2018-12-31T09:41:24.632Z,4.40
2018-12-31T09:43:52.507Z,4.40
2018-12-31T09:46:20.815Z,4.50
2018-12-31T09:48:49.046Z,4.50
2018-12-31T09:51:17.912Z,4.50
2018-12-31T09:53:46.036Z,4.50
2018-12-31T09:56:14.030Z,4.50
2018-12-31T09:58:42.520Z,4.50
2018-12-31T10:01:10.657Z,4.50
2018-12-31T10:03:39.276Z,4.50
2018-12-31T10:06:06.976Z,4.50
2018-12-31T10:08:34.969Z,4.40
2018-12-31T10:11:03.050Z,4.50
2018-12-31T10:13:30.790Z,4.50
2018-12-31T10:15:58.761Z,4.40
2018-12-31T10:18:26.796Z,4.40
2018-12-31T10:20:54.801Z,4.40
2018-12-31T10:23:23.103Z,4.40
2018-12-31T10:25:51.648Z,4.40
2018-12-31T10:28:19.658Z,4.40
2018-12-31T10:30:47.718Z,4.40
2018-12-31T10:33:16.891Z,4.40
2018-12-31T10:35:49.039Z,4.40
2018-12-31T10:38:17.069Z,4.40
2018-12-31T10:40:44.985Z,4.40
2018-12-31T10:43:14.679Z,4.40
2018-12-31T10:45:42.566Z,4.40
2018-12-31T10:48:10.452Z,4.50
2018-12-31T10:50:38.562Z,4.50
2018-12-31T10:53:06.392Z,4.50
2018-12-31T10:55:34.241Z,4.50
2018-12-31T10:58:02.091Z,4.50
2018-12-31T11:00:29.992Z,4.50
2018-12-31T11:02:58.439Z,4.50
2018-12-31T11:05:26.459Z,4.50
2018-12-31T11:07:54.517Z,4.50
2018-12-31T11:10:22.462Z,4.50
2018-12-31T11:12:50.307Z,4.50
2018-12-31T11:15:18.725Z,4.50
2018-12-31T11:17:46.650Z,4.50
2018-12-31T11:20:14.635Z,4.50
2018-12-31T11:22:42.721Z,4.50
2018-12-31T11:25:11.192Z,4.50
2018-12-31T11:27:39.212Z,4.50
2018-12-31T11:30:07.557Z,4.50
2018-12-31T11:32:38.090Z,4.50
2018-12-31T11:35:06.205Z,4.50
2018-12-31T11:37:34.868Z,4.50
2018-12-31T11:40:03.102Z,4.60
2018-12-31T11:42:31.296Z,4.60
2018-12-31T11:44:59.224Z,4.60
2018-12-31T11:47:27.117Z,4.60
2018-12-31T11:49:56.360Z,4.60
2018-12-31T11:52:25.126Z,4.70
2018-12-31T11:54:58.160Z,4.70
2018-12-31T11:57:28.608Z,4.70
2018-12-31T11:59:57.003Z,4.70
2018-12-31T12:02:26.321Z,4.70
2018-12-31T12:04:54.131Z,4.70
2018-12-31T12:07:22.060Z,4.70
2018-12-31T12:09:51.852Z,4.70
2018-12-31T12:12:20.525Z,4.70
2018-12-31T12:14:48.638Z,4.70
2018-12-31T12:17:16.497Z,4.80
2018-12-31T12:19:44.574Z,4.70
2018-12-31T12:22:12.701Z,4.70
2018-12-31T12:24:43.662Z,4.70
2018-12-31T12:27:12.043Z,4.70
2018-12-31T12:29:40.061Z,4.70
2018-12-31T12:32:08.343Z,4.70
2018-12-31T12:34:36.314Z,4.70
2018-12-31T12:37:04.351Z,4.60
2018-12-31T12:39:32.396Z,4.70
2018-12-31T12:42:00.345Z,4.70
2018-12-31T12:44:28.571Z,4.70
2018-12-31T12:46:57.123Z,4.70
2018-12-31T12:49:26.042Z,4.70
2018-12-31T12:51:57.954Z,4.70
2018-12-31T12:54:26.990Z,4.70
2018-12-31T12:56:54.854Z,4.70
2018-12-31T12:59:25.549Z,4.70
2018-12-31T13:01:54.781Z,4.70
2018-12-31T13:04:23.005Z,4.70
2018-12-31T13:06:59.563Z,4.80
2018-12-31T13:09:28.241Z,4.80
2018-12-31T13:11:56.405Z,4.70
2018-12-31T13:14:24.758Z,4.80
2018-12-31T13:16:52.608Z,4.80
2018-12-31T13:19:20.680Z,4.80
2018-12-31T13:21:48.997Z,4.80
2018-12-31T13:24:16.876Z,4.80
2018-12-31T13:26:46.687Z,4.80
2018-12-31T13:29:14.785Z,4.80
2018-12-31T13:31:43.149Z,4.80
2018-12-31T13:34:11.174Z,4.80
2018-12-31T13:36:39.349Z,4.80
2018-12-31T13:39:07.426Z,4.70
2018-12-31T13:41:35.175Z,4.70
2018-12-31T13:44:03.185Z,4.80
2018-12-31T13:46:31.181Z,4.70
2018-12-31T13:48:59.212Z,4.80
2018-12-31T13:51:27.252Z,4.80
2018-12-31T13:53:56.256Z,4.80
2018-12-31T13:56:24.036Z,4.80
2018-12-31T13:58:52.438Z,4.80
2018-12-31T14:01:21.503Z,4.80
2018-12-31T14:03:49.367Z,4.80
2018-12-31T14:06:17.614Z,4.80
2018-12-31T14:08:45.484Z,4.80
2018-12-31T14:11:13.568Z,4.80
2018-12-31T14:13:43.526Z,4.80
2018-12-31T14:16:11.857Z,4.80
2018-12-31T14:18:40.078Z,4.80
2018-12-31T14:21:08.171Z,4.80
2018-12-31T14:23:36.756Z,4.80
2018-12-31T14:26:04.710Z,4.80
2018-12-31T14:28:32.748Z,4.80
2018-12-31T14:31:01.741Z,4.80
2018-12-31T14:33:29.724Z,4.80
2018-12-31T14:35:57.702Z,4.80
2018-12-31T14:38:25.945Z,4.80
2018-12-31T14:40:53.856Z,4.80
2018-12-31T14:43:21.793Z,4.80
2018-12-31T14:45:49.642Z,4.80
2018-12-31T14:48:17.634Z,4.80
2018-12-31T14:50:45.909Z,4.80
2018-12-31T14:53:13.761Z,4.80
2018-12-31T14:55:42.137Z,4.80
2018-12-31T14:58:10.486Z,4.80
2018-12-31T15:00:38.362Z,4.70
2018-12-31T15:03:06.362Z,4.70
2018-12-31T15:05:34.430Z,4.70
2018-12-31T15:08:02.582Z,4.70
2018-12-31T15:10:30.638Z,4.70
2018-12-31T15:12:58.683Z,4.70
2018-12-31T15:15:26.832Z,4.70
2018-12-31T15:17:58.378Z,4.70
2018-12-31T15:20:26.408Z,4.70
2018-12-31T15:22:54.800Z,4.60
2018-12-31T15:25:22.772Z,4.60
2018-12-31T15:27:50.879Z,4.60
2018-12-31T15:30:20.848Z,4.60
2018-12-31T15:32:48.851Z,4.60
2018-12-31T15:35:17.112Z,4.60
2018-12-31T15:37:44.952Z,4.60
2018-12-31T15:40:12.967Z,4.60
2018-12-31T15:42:40.969Z,4.60
2018-12-31T15:45:09.067Z,4.60
2018-12-31T15:47:37.050Z,4.60
2018-12-31T15:50:05.813Z,4.60
2018-12-31T15:52:33.980Z,4.60
2018-12-31T15:55:01.812Z,4.60
2018-12-31T15:57:29.674Z,4.60
2018-12-31T15:59:58.074Z,4.60
2018-12-31T16:02:26.342Z,4.60
2018-12-31T16:04:54.646Z,4.60
2018-12-31T16:07:22.601Z,4.60
2018-12-31T16:09:51.089Z,4.60
2018-12-31T16:12:19.435Z,4.50
2018-12-31T16:14:47.409Z,4.60
2018-12-31T16:17:15.746Z,4.60
2018-12-31T16:19:43.816Z,4.50
2018-12-31T16:22:11.898Z,4.60
2018-12-31T16:24:39.656Z,4.60
2018-12-31T16:27:08.537Z,4.60
2018-12-31T16:29:36.390Z,4.60
2018-12-31T16:32:04.447Z,4.60
2018-12-31T16:34:32.450Z,4.60
2018-12-31T16:37:00.364Z,4.50
2018-12-31T16:39:28.358Z,4.50
2018-12-31T16:41:56.238Z,4.50
2018-12-31T16:44:26.314Z,4.50
2018-12-31T16:46:54.366Z,4.50
2018-12-31T16:49:22.455Z,4.50
2018-12-31T16:51:50.364Z,4.50
2018-12-31T16:54:18.439Z,4.60
2018-12-31T16:56:46.700Z,4.60
2018-12-31T16:59:14.724Z,4.60
2018-12-31T17:01:42.768Z,4.60
2018-12-31T17:04:10.735Z,4.60
2018-12-31T17:06:38.525Z,4.60
2018-12-31T17:09:06.575Z,4.60
2018-12-31T17:11:34.608Z,4.60
2018-12-31T17:14:02.432Z,4.60
2018-12-31T17:16:30.589Z,4.60
2018-12-31T17:18:59.895Z,4.60
2018-12-31T17:21:27.782Z,4.60
2018-12-31T17:23:55.915Z,4.60
2018-12-31T17:26:23.749Z,4.60
2018-12-31T17:28:53.147Z,4.60
2018-12-31T17:31:21.111Z,4.60
2018-12-31T17:33:49.120Z,4.60
2018-12-31T17:36:16.896Z,4.60
2018-12-31T17:38:44.643Z,4.60
2018-12-31T17:41:12.720Z,4.60
2018-12-31T17:43:40.689Z,4.60
2018-12-31T17:46:09.679Z,4.60
2018-12-31T17:48:37.702Z,4.60
2018-12-31T17:51:06.058Z,4.60
2018-12-31T17:53:35.070Z,4.60
2018-12-31T17:56:03.116Z,4.60
2018-12-31T17:58:30.890Z,4.60
2018-12-31T18:00:58.725Z,4.60
2018-12-31T18:03:26.518Z,4.60
2018-12-31T18:05:54.567Z,4.60
2018-12-31T18:08:22.527Z,4.60
2018-12-31T18:10:50.528Z,4.60
2018-12-31T18:13:18.927Z,4.60
2018-12-31T18:15:46.960Z,4.60
2018-12-31T18:18:16.965Z,4.60
2018-12-31T18:20:45.038Z,4.60
2018-12-31T18:23:14.829Z,4.70
2018-12-31T18:25:42.908Z,4.70
2018-12-31T18:28:10.844Z,4.70
2018-12-31T18:30:39.164Z,4.70
2018-12-31T18:33:07.365Z,4.70
2018-12-31T18:35:35.863Z,4.70
2018-12-31T18:38:03.922Z,4.70
2018-12-31T18:40:31.933Z,4.70
2018-12-31T18:43:00.230Z,4.70
2018-12-31T18:45:28.228Z,4.80
2018-12-31T18:47:56.672Z,4.80
2018-12-31T18:50:25.333Z,4.80
2018-12-31T18:52:53.313Z,4.80
2018-12-31T18:55:21.328Z,4.80
2018-12-31T18:57:49.595Z,4.80
2018-12-31T19:00:17.534Z,4.80
2018-12-31T19:02:45.552Z,4.90
2018-12-31T19:05:13.435Z,4.90
2018-12-31T19:07:41.359Z,4.90
2018-12-31T19:10:09.303Z,4.90
2018-12-31T19:12:37.707Z,4.90
2018-12-31T19:15:06.490Z,4.90
2018-12-31T19:17:34.714Z,4.90
2018-12-31T19:20:02.754Z,4.90
2018-12-31T19:22:30.813Z,4.90
2018-12-31T19:24:59.195Z,4.90
2018-12-31T19:27:27.208Z,4.90
2018-12-31T19:29:55.200Z,4.90
2018-12-31T19:32:23.029Z,5.00
2018-12-31T19:34:51.207Z,5.00
2018-12-31T19:37:19.100Z,5.00
2018-12-31T19:39:49.736Z,5.00
2018-12-31T19:42:17.870Z,5.00
2018-12-31T19:44:45.867Z,5.00
2018-12-31T19:47:13.765Z,5.00
2018-12-31T19:49:42.849Z,5.00
2018-12-31T19:52:11.095Z,5.00
2018-12-31T19:54:39.100Z,5.00
2018-12-31T19:57:07.461Z,5.00
2018-12-31T19:59:35.964Z,5.10
2018-12-31T20:02:05.974Z,5.10
2018-12-31T20:04:34.298Z,5.10
2018-12-31T20:07:03.596Z,5.10
2018-12-31T20:09:31.620Z,5.10
2018-12-31T20:11:59.447Z,5.10
2018-12-31T20:14:27.772Z,5.10
2018-12-31T20:16:55.565Z,5.10
2018-12-31T20:19:23.468Z,5.10
2018-12-31T20:21:51.600Z,5.10
2018-12-31T20:24:19.792Z,5.20
2018-12-31T20:26:48.203Z,5.20
2018-12-31T20:29:15.934Z,5.20
2018-12-31T20:31:43.733Z,5.20
2018-12-31T20:34:11.554Z,5.20
2018-12-31T20:36:40.335Z,5.20
2018-12-31T20:39:09.201Z,5.20
2018-12-31T20:41:37.891Z,5.20
2018-12-31T20:44:05.803Z,5.20
2018-12-31T20:46:33.640Z,5.20
2018-12-31T20:49:01.615Z,5.20
2018-12-31T20:51:29.545Z,5.20
2018-12-31T20:53:57.587Z,5.30
2018-12-31T20:56:25.569Z,5.20
2018-12-31T20:58:53.940Z,5.30
2018-12-31T21:01:22.017Z,5.30
2018-12-31T21:03:49.917Z,5.30
2018-12-31T21:06:17.921Z,5.30
2018-12-31T21:08:46.539Z,5.30
2018-12-31T21:11:14.616Z,5.30
2018-12-31T21:13:42.585Z,5.30
2018-12-31T21:16:11.204Z,5.30
2018-12-31T21:18:39.218Z,5.30
2018-12-31T21:21:07.272Z,5.30
2018-12-31T21:23:35.124Z,5.30
2018-12-31T21:26:02.865Z,5.40
2018-12-31T21:28:30.725Z,5.30
2018-12-31T21:30:59.041Z,5.40
2018-12-31T21:33:26.979Z,5.30
2018-12-31T21:40:51.894Z,5.50
2018-12-31T21:43:20.088Z,5.50
2018-12-31T21:45:48.067Z,5.40
2018-12-31T21:48:16.027Z,5.40
2018-12-31T21:50:44.527Z,5.40
2018-12-31T21:53:12.861Z,5.40
2018-12-31T21:55:41.937Z,5.40
2018-12-31T21:58:13.368Z,5.40
2018-12-31T22:00:41.752Z,5.40
2018-12-31T22:03:09.728Z,5.40
2018-12-31T22:05:37.763Z,5.50
2018-12-31T22:08:05.797Z,5.50
2018-12-31T22:10:33.974Z,5.40
2018-12-31T22:13:01.940Z,5.50
2018-12-31T22:15:30.258Z,5.50
2018-12-31T22:17:58.242Z,5.50
2018-12-31T22:20:26.222Z,5.50
2018-12-31T22:22:54.235Z,5.50
2018-12-31T22:25:22.277Z,5.50
2018-12-31T22:27:50.105Z,5.50
2018-12-31T22:30:18.008Z,5.50
2018-12-31T22:32:46.040Z,5.50
2018-12-31T22:35:14.066Z,5.50
2018-12-31T22:37:42.119Z,5.50
2018-12-31T22:40:10.109Z,5.50
2018-12-31T22:42:38.358Z,5.50
2018-12-31T22:45:06.904Z,5.50
2018-12-31T22:47:34.889Z,5.50
2018-12-31T22:50:02.969Z,5.50
2018-12-31T22:52:31.093Z,5.50
2018-12-31T22:54:59.043Z,5.50
2018-12-31T22:57:26.891Z,5.50
2018-12-31T22:59:54.963Z,5.50
2018-12-31T23:02:23.396Z,5.50
2018-12-31T23:04:51.554Z,5.50
2018-12-31T23:07:19.636Z,5.50
2018-12-31T23:09:47.533Z,5.50
2018-12-31T23:12:15.443Z,5.50
2018-12-31T23:14:43.214Z,5.50
2018-12-31T23:17:11.626Z,5.50
2018-12-31T23:19:41.886Z,5.50
2018-12-31T23:22:09.560Z,5.50
2018-12-31T23:24:37.810Z,5.50
2018-12-31T23:27:06.049Z,5.50
2018-12-31T23:29:34.487Z,5.50
2018-12-31T23:32:02.597Z,5.50
2018-12-31T23:34:30.612Z,5.60
2018-12-31T23:36:58.563Z,5.50
2018-12-31T23:39:26.487Z,5.50
2018-12-31T23:41:54.306Z,5.50
2018-12-31T23:44:22.126Z,5.50
2018-12-31T23:46:50.124Z,5.50
2018-12-31T23:49:18.111Z,5.50
2018-12-31T23:51:45.967Z,5.50
2018-12-31T23:54:13.920Z,5.50
2018-12-31T23:56:41.921Z,5.50
2018-12-31T23:59:10.282Z,5.50
